createdAt,value
2019-03-04T00:02:33.334Z,12.93
2019-03-04T00:05:09.446Z,10.40
2019-03-04T00:07:46.905Z,10.45
2019-03-04T00:10:24.950Z,15.95
2019-03-04T00:12:59.811Z,12.55
2019-03-04T00:15:34.473Z,11.90
2019-03-04T00:18:11.114Z,11.08
2019-03-04T00:20:45.699Z,11.22
2019-03-04T00:23:20.530Z,10.70
2019-03-04T00:25:55.046Z,9.50
2019-03-04T00:28:29.842Z,8.45
2019-03-04T00:31:09.143Z,7.90
2019-03-04T00:33:44.316Z,9.80
2019-03-04T00:36:19.145Z,9.30
2019-03-04T00:38:55.013Z,7.28
2019-03-04T00:41:29.787Z,9.03
2019-03-04T00:44:04.623Z,8.15
2019-03-04T00:49:13.304Z,8.95
2019-03-04T00:51:48.016Z,9.60
2019-03-04T00:54:23.660Z,8.60
2019-03-04T00:56:58.487Z,10.30
2019-03-04T00:59:33.167Z,11.08
2019-03-04T01:02:08.607Z,9.25
2019-03-04T01:04:43.082Z,7.33
2019-03-04T01:07:17.656Z,9.30
2019-03-04T01:12:26.381Z,11.08
2019-03-04T01:15:01.051Z,7.55
2019-03-04T01:17:36.279Z,11.90
2019-03-04T01:20:14.625Z,8.83
2019-03-04T01:22:49.146Z,10.38
2019-03-04T01:25:23.608Z,9.13
2019-03-04T01:30:32.785Z,8.48
2019-03-04T01:33:07.328Z,8.23
2019-03-04T01:35:42.009Z,8.45
2019-03-04T01:38:16.552Z,8.75
2019-03-04T01:40:51.114Z,8.35
2019-03-04T01:43:25.670Z,9.33
2019-03-04T01:46:00.031Z,9.93
2019-03-04T01:48:34.586Z,9.30
2019-03-04T01:53:43.040Z,10.20
2019-03-04T01:56:17.667Z,9.43
2019-03-04T02:04:00.235Z,8.70
2019-03-04T02:06:35.072Z,8.95
2019-03-04T02:09:10.080Z,7.37
2019-03-04T02:11:46.001Z,9.78
2019-03-04T02:14:20.603Z,8.23
2019-03-04T02:16:55.098Z,8.70
2019-03-04T02:19:29.694Z,8.88
2019-03-04T02:22:04.128Z,10.75
2019-03-04T02:24:39.438Z,10.13
2019-03-04T02:27:14.304Z,9.70
2019-03-04T02:29:48.843Z,9.55
2019-03-04T02:32:23.523Z,10.20
2019-03-04T02:34:57.849Z,8.50
2019-03-04T02:37:32.427Z,12.37
2019-03-04T02:40:08.072Z,12.05
2019-03-04T02:42:42.666Z,10.90
2019-03-04T02:47:52.167Z,8.28
2019-03-04T02:50:27.049Z,10.25
2019-03-04T02:53:01.655Z,9.88
2019-03-04T02:58:09.985Z,9.35
2019-03-04T03:00:45.115Z,9.23
2019-03-04T03:03:22.021Z,13.48
2019-03-04T03:05:56.702Z,10.48
2019-03-04T03:08:31.319Z,10.48
2019-03-04T03:11:06.026Z,9.80
2019-03-04T03:13:40.426Z,10.30
2019-03-04T03:16:15.459Z,11.43
2019-03-04T03:21:24.134Z,11.10
2019-03-04T03:23:59.451Z,10.65
2019-03-04T03:29:08.288Z,8.13
2019-03-04T03:31:43.018Z,8.55
2019-03-04T03:34:17.587Z,10.48
2019-03-04T03:39:26.817Z,10.38
2019-03-04T03:42:01.880Z,10.60
2019-03-04T03:44:36.441Z,10.78
2019-03-04T03:47:11.058Z,9.73
2019-03-04T03:49:45.643Z,8.90
2019-03-04T03:52:20.046Z,9.13
2019-03-04T03:54:54.684Z,11.08
2019-03-04T04:00:04.332Z,13.72
2019-03-04T04:05:13.813Z,12.33
2019-03-04T04:07:51.539Z,12.95
2019-03-04T04:10:26.145Z,13.98
2019-03-04T04:13:01.651Z,10.75
2019-03-04T04:18:09.781Z,13.53
2019-03-04T04:20:44.619Z,11.50
2019-03-04T04:25:55.322Z,11.08
2019-03-04T04:28:31.643Z,13.68
2019-03-04T04:33:40.185Z,10.25
2019-03-04T04:36:14.653Z,10.72
2019-03-04T04:38:49.352Z,9.40
2019-03-04T04:41:23.834Z,13.55
2019-03-04T04:43:58.879Z,13.83
2019-03-04T04:46:55.664Z,10.55
2019-03-04T04:49:33.073Z,10.20
2019-03-04T04:52:07.819Z,9.93
2019-03-04T04:54:42.487Z,8.85
2019-03-04T04:57:17.045Z,10.75
2019-03-04T04:59:51.671Z,11.57
2019-03-04T05:05:00.123Z,10.75
2019-03-04T05:07:34.647Z,10.50
2019-03-04T05:15:22.156Z,11.33
2019-03-04T05:17:58.525Z,10.63
2019-03-04T05:20:33.140Z,9.45
2019-03-04T05:23:08.970Z,11.48
2019-03-04T05:25:43.706Z,10.23
2019-03-04T05:28:18.545Z,10.32
2019-03-04T05:30:53.565Z,9.15
2019-03-04T05:36:02.591Z,9.28
2019-03-04T05:41:11.875Z,12.25
2019-03-04T05:43:46.530Z,12.80
2019-03-04T05:46:21.612Z,12.10
2019-03-04T05:48:55.701Z,12.15
2019-03-04T05:51:31.908Z,9.53
2019-03-04T05:54:06.612Z,11.80
2019-03-04T05:59:19.794Z,9.95
2019-03-04T06:02:12.309Z,9.83
2019-03-04T06:04:47.820Z,11.48
2019-03-04T06:07:42.414Z,11.05
2019-03-04T06:10:16.981Z,10.65
2019-03-04T06:12:52.261Z,11.28
2019-03-04T06:15:30.118Z,10.95
2019-03-04T06:18:05.562Z,12.47
2019-03-04T06:23:15.419Z,8.83
2019-03-04T06:25:50.328Z,10.38
2019-03-04T06:28:25.083Z,10.95
2019-03-04T06:31:00.354Z,8.75
2019-03-04T06:33:35.672Z,11.73
2019-03-04T06:38:45.182Z,12.15
2019-03-04T06:41:19.978Z,11.78
2019-03-04T06:43:54.651Z,10.20
2019-03-04T06:46:29.080Z,10.05
2019-03-04T06:49:04.147Z,13.72
2019-03-04T06:51:45.769Z,10.58
2019-03-04T06:55:30.739Z,11.90
2019-03-04T06:58:05.313Z,14.25
2019-03-04T07:01:08.150Z,13.62
2019-03-04T07:04:27.908Z,15.60
2019-03-04T07:07:02.668Z,11.48
2019-03-04T07:12:10.814Z,14.47
2019-03-04T07:14:45.525Z,11.85
2019-03-04T07:17:20.147Z,13.35
2019-03-04T07:20:10.115Z,18.62
2019-03-04T07:22:44.991Z,16.25
2019-03-04T07:25:19.693Z,12.60
2019-03-04T07:30:28.418Z,16.75
2019-03-04T07:35:39.123Z,14.60
2019-03-04T07:38:47.746Z,11.83
2019-03-04T07:41:22.122Z,13.18
2019-03-04T07:43:56.722Z,16.95
2019-03-04T07:46:31.274Z,10.60
2019-03-04T07:49:06.310Z,11.68
2019-03-04T07:51:40.811Z,14.23
2019-03-04T07:54:15.512Z,13.95
2019-03-04T07:56:50.021Z,13.55
2019-03-04T07:59:25.560Z,12.18
2019-03-04T08:02:00.575Z,10.45
2019-03-04T08:07:49.517Z,10.82
2019-03-04T08:11:09.488Z,8.73
2019-03-04T08:13:52.955Z,7.92
2019-03-04T08:16:27.585Z,4.67
2019-03-04T08:21:35.805Z,5.15
2019-03-04T08:24:10.554Z,4.75
2019-03-04T08:29:19.104Z,5.62
2019-03-04T08:31:53.690Z,7.78
2019-03-04T08:34:31.296Z,4.35
2019-03-04T08:37:06.361Z,6.40
2019-03-04T08:39:41.059Z,4.42
2019-03-04T08:42:15.868Z,7.72
2019-03-04T08:44:53.529Z,5.12
2019-03-04T08:52:36.525Z,2.10
2019-03-04T08:55:13.673Z,4.50
2019-03-04T08:57:48.136Z,3.40
2019-03-04T09:00:27.066Z,2.37
2019-03-04T09:03:02.580Z,2.25
2019-03-04T09:05:37.078Z,3.10
2019-03-04T09:08:11.628Z,2.20
2019-03-04T09:13:20.612Z,2.25
2019-03-04T09:18:32.058Z,1.47
2019-03-04T09:21:07.344Z,2.30
2019-03-04T09:23:42.317Z,3.20
2019-03-04T09:26:17.125Z,5.65
2019-03-04T09:28:52.384Z,6.95
2019-03-04T09:31:27.395Z,7.90
2019-03-04T09:34:02.303Z,1.87
2019-03-04T09:36:37.011Z,2.17
2019-03-04T09:39:16.522Z,2.15
2019-03-04T09:41:52.977Z,2.70
2019-03-04T09:44:27.948Z,2.77
2019-03-04T09:47:02.645Z,2.08
2019-03-04T09:49:37.325Z,1.87
2019-03-04T09:52:11.762Z,1.30
2019-03-04T09:54:46.677Z,1.40
2019-03-04T09:57:21.310Z,2.60
2019-03-04T09:59:56.065Z,1.65
2019-03-04T10:02:43.666Z,1.72
2019-03-04T10:06:13.302Z,5.17
2019-03-04T10:09:30.603Z,2.65
2019-03-04T10:16:05.157Z,1.57
2019-03-04T10:19:59.320Z,3.17
2019-03-04T10:23:48.735Z,2.27
2019-03-04T10:28:08.095Z,3.47
2019-03-04T10:32:27.523Z,3.20
2019-03-04T10:39:17.752Z,2.00
2019-03-04T10:43:16.331Z,2.10
2019-03-04T10:46:55.875Z,2.10
2019-03-04T10:49:33.839Z,3.70
2019-03-04T10:52:08.581Z,3.52
2019-03-04T10:57:18.435Z,4.67
2019-03-04T10:59:53.180Z,3.67
2019-03-04T11:02:28.306Z,5.08
2019-03-04T11:05:03.137Z,4.75
2019-03-04T11:07:38.517Z,4.47
2019-03-04T11:10:57.827Z,3.70
2019-03-04T11:13:32.317Z,2.83
2019-03-04T11:16:07.977Z,4.83
2019-03-04T11:18:42.657Z,4.03
2019-03-04T11:21:17.675Z,5.37
2019-03-04T11:23:52.731Z,7.20
2019-03-04T11:26:27.603Z,6.05
2019-03-04T11:34:12.465Z,4.55
2019-03-04T11:36:47.547Z,3.90
2019-03-04T11:40:02.607Z,7.90
2019-03-04T11:42:38.161Z,4.40
2019-03-04T11:45:16.092Z,7.25
2019-03-04T11:47:50.979Z,8.80
2019-03-04T11:50:25.692Z,7.60
2019-03-04T11:53:00.875Z,4.90
2019-03-04T11:55:35.621Z,6.30
2019-03-04T11:58:10.521Z,7.83
2019-03-04T12:03:24.326Z,5.50
2019-03-04T12:05:58.897Z,7.35
2019-03-04T12:08:33.804Z,6.33
2019-03-04T12:11:08.522Z,8.35
2019-03-04T12:13:43.838Z,5.22
2019-03-04T12:16:18.831Z,8.58
2019-03-04T12:18:53.592Z,5.05
2019-03-04T12:24:03.066Z,6.53
2019-03-04T12:26:38.540Z,9.10
2019-03-04T12:32:02.672Z,6.10
2019-03-04T12:34:37.319Z,10.43
2019-03-04T12:37:12.072Z,5.40
2019-03-04T12:39:47.069Z,8.13
2019-03-04T12:42:22.054Z,6.40
2019-03-04T12:44:58.050Z,4.53
2019-03-04T12:47:32.802Z,7.17
2019-03-04T12:50:18.931Z,7.12
2019-03-04T12:52:55.557Z,8.48
2019-03-04T12:58:47.197Z,7.50
2019-03-04T13:01:41.571Z,8.58
2019-03-04T13:04:24.288Z,6.30
2019-03-04T13:07:05.185Z,5.37
2019-03-04T13:09:50.549Z,6.60
2019-03-04T13:12:37.064Z,7.62
2019-03-04T13:15:27.447Z,6.08
2019-03-04T13:18:09.556Z,7.83
2019-03-04T13:21:04.605Z,6.97
2019-03-04T13:23:47.407Z,6.60
2019-03-04T13:26:32.155Z,7.33
2019-03-04T13:29:17.323Z,9.08
2019-03-04T13:32:08.161Z,5.70
2019-03-04T13:34:50.067Z,7.97
2019-03-04T13:37:43.335Z,6.35
2019-03-04T13:40:38.250Z,6.85
2019-03-04T13:46:30.411Z,9.65
2019-03-04T13:52:21.336Z,5.42
2019-03-04T13:55:25.076Z,6.42
2019-03-04T13:58:17.671Z,5.53
2019-03-04T14:01:06.951Z,8.50
2019-03-04T14:04:00.615Z,6.80
2019-03-04T14:06:45.012Z,6.92
2019-03-04T14:12:11.052Z,8.10
2019-03-04T14:15:00.143Z,5.85
2019-03-04T14:17:52.991Z,7.22
2019-03-04T14:20:42.487Z,4.20
2019-03-04T14:23:28.481Z,6.47
2019-03-04T14:26:17.966Z,5.17
2019-03-04T14:29:25.047Z,5.87
2019-03-04T14:32:10.936Z,5.33
2019-03-04T14:34:58.664Z,6.67
2019-03-04T14:37:49.381Z,5.47
2019-03-04T14:40:38.993Z,6.00
2019-03-04T14:46:29.351Z,4.83
2019-03-04T14:49:20.065Z,5.62
2019-03-04T14:52:09.323Z,6.92
2019-03-04T14:57:40.930Z,9.38
2019-03-04T15:00:35.345Z,5.53
2019-03-04T15:03:23.991Z,5.25
2019-03-04T15:06:07.152Z,5.58
2019-03-04T15:08:59.072Z,6.22
2019-03-04T15:11:42.365Z,8.10
2019-03-04T15:14:31.361Z,4.62
2019-03-04T15:17:21.237Z,6.37
2019-03-04T15:22:55.070Z,6.92
2019-03-04T15:25:31.247Z,7.17
2019-03-04T15:28:15.892Z,6.58
2019-03-04T15:30:55.318Z,7.45
2019-03-04T15:33:30.496Z,8.45
2019-03-04T15:36:11.302Z,7.03
2019-03-04T15:38:45.975Z,5.87
2019-03-04T15:41:25.534Z,5.55
2019-03-04T15:44:10.629Z,6.83
2019-03-04T15:46:52.226Z,10.05
2019-03-04T15:49:44.361Z,7.97
2019-03-04T17:19:26.537Z,2.70
2019-03-04T17:29:46.095Z,2.75
2019-03-04T17:32:23.024Z,3.10
2019-03-04T17:34:58.026Z,3.10
2019-03-04T17:37:34.442Z,2.87
2019-03-04T17:40:11.838Z,2.52
2019-03-04T17:42:46.858Z,1.65
2019-03-04T17:45:24.281Z,3.00
2019-03-04T17:47:59.468Z,2.55
2019-03-04T17:50:35.946Z,1.60
2019-03-04T17:53:10.671Z,2.17
2019-03-04T17:55:45.505Z,2.80
2019-03-04T17:58:20.326Z,2.80
2019-03-04T18:00:55.421Z,1.98
2019-03-04T18:03:30.304Z,1.82
2019-03-04T18:06:05.070Z,2.30
2019-03-04T18:08:40.100Z,3.02
2019-03-04T18:11:15.048Z,2.35
2019-03-04T18:13:50.105Z,1.65
2019-03-04T18:16:25.092Z,3.22
2019-03-04T18:18:59.644Z,4.00
2019-03-04T18:24:10.171Z,2.40
2019-03-04T18:27:11.542Z,3.00
2019-03-04T18:33:45.674Z,2.90
2019-03-04T18:37:20.301Z,1.90
2019-03-04T18:41:20.596Z,1.60
2019-03-04T18:44:39.307Z,2.35
2019-03-04T18:48:10.321Z,3.37
2019-03-04T18:50:45.519Z,3.27
2019-03-04T18:53:20.651Z,4.17
2019-03-04T18:55:55.315Z,4.95
2019-03-04T18:58:29.803Z,4.05
2019-03-04T19:01:06.150Z,3.05
2019-03-04T19:03:41.501Z,2.83
2019-03-04T19:06:16.437Z,2.60
2019-03-04T19:08:51.442Z,2.50
2019-03-04T19:11:26.201Z,2.72
2019-03-04T19:14:00.812Z,4.55
2019-03-04T19:16:36.324Z,5.92
2019-03-04T19:19:11.141Z,2.60
2019-03-04T19:21:46.314Z,4.35
2019-03-04T19:24:21.153Z,6.58
2019-03-04T19:26:56.122Z,4.20
2019-03-04T19:29:32.126Z,3.25
2019-03-04T19:32:07.040Z,4.08
2019-03-04T19:34:42.220Z,4.85
2019-03-04T19:37:17.051Z,3.42
2019-03-04T19:39:52.606Z,3.20
2019-03-04T19:45:01.322Z,3.62
2019-03-04T19:47:40.387Z,3.67
2019-03-04T19:50:17.121Z,7.87
2019-03-04T19:52:52.049Z,3.83
2019-03-04T19:55:27.145Z,16.73
2019-03-04T19:58:02.553Z,5.28
2019-03-04T20:00:37.963Z,3.20
2019-03-04T20:03:13.033Z,2.83
2019-03-04T20:05:48.165Z,1.92
2019-03-04T20:08:23.516Z,3.70
2019-03-04T20:10:58.330Z,4.80
2019-03-04T20:13:33.304Z,4.17
2019-03-04T20:16:09.674Z,3.90
2019-03-04T20:18:44.603Z,2.62
2019-03-04T20:23:53.639Z,3.25
2019-03-04T20:29:02.592Z,1.77
2019-03-04T20:36:46.860Z,0.88
2019-03-04T20:39:22.830Z,1.80
2019-03-04T20:41:57.583Z,1.62
2019-03-04T20:47:06.536Z,1.77
2019-03-04T20:49:41.938Z,2.87
2019-03-04T20:52:17.169Z,1.50
2019-03-04T20:54:52.217Z,1.50
2019-03-04T20:57:27.319Z,2.05
2019-03-04T21:00:02.083Z,2.85
2019-03-04T21:02:38.756Z,1.70
2019-03-04T21:05:17.236Z,2.67
2019-03-04T21:07:52.781Z,2.22
2019-03-04T21:10:28.568Z,2.60
2019-03-04T21:13:13.303Z,3.30
2019-03-04T21:15:48.745Z,2.30
2019-03-04T21:18:24.321Z,3.92
2019-03-04T21:20:59.724Z,7.47
2019-03-04T21:23:34.587Z,6.87
2019-03-04T21:26:24.317Z,2.75
2019-03-04T21:30:00.065Z,2.30
2019-03-04T21:33:34.703Z,3.10
2019-03-04T21:36:50.506Z,3.15
2019-03-04T21:39:32.741Z,5.20
2019-03-04T21:43:03.824Z,2.45
2019-03-04T21:47:10.107Z,2.65
2019-03-04T21:49:54.057Z,2.98
2019-03-04T21:53:12.457Z,3.35
2019-03-04T21:56:36.245Z,3.42
2019-03-04T21:59:12.126Z,2.95
2019-03-04T22:02:16.438Z,5.45
2019-03-04T22:04:51.563Z,4.97
2019-03-04T22:07:26.459Z,2.65
2019-03-04T22:10:01.681Z,3.22
2019-03-04T22:12:37.873Z,3.35
2019-03-04T22:15:13.341Z,3.15
2019-03-04T22:17:48.333Z,2.70
2019-03-04T22:20:23.179Z,2.58
2019-03-04T22:22:58.393Z,2.75
2019-03-04T22:25:32.836Z,3.83
2019-03-04T22:28:07.470Z,5.03
2019-03-04T22:30:42.773Z,5.05
2019-03-04T22:33:17.715Z,4.42
2019-03-04T22:35:52.674Z,3.42
2019-03-04T22:41:01.741Z,4.30
2019-03-04T22:43:36.649Z,3.98
2019-03-04T22:48:45.532Z,6.30
2019-03-04T22:51:20.502Z,4.30
2019-03-04T22:53:55.662Z,2.47
2019-03-04T22:59:04.898Z,3.37
2019-03-04T23:01:54.262Z,3.30
2019-03-04T23:07:49.170Z,2.80
2019-03-04T23:10:45.842Z,3.15
2019-03-04T23:14:00.651Z,3.00
2019-03-04T23:19:09.057Z,4.12
2019-03-04T23:21:43.789Z,2.70
2019-03-04T23:24:18.558Z,5.50
2019-03-04T23:32:01.361Z,5.60
2019-03-04T23:34:37.524Z,4.00
2019-03-04T23:37:12.335Z,5.47
2019-03-04T23:39:47.024Z,3.80
2019-03-04T23:42:21.772Z,3.95
2019-03-04T23:44:56.792Z,3.75
2019-03-04T23:47:32.820Z,4.37
2019-03-04T23:50:18.540Z,8.35
2019-03-04T23:52:53.155Z,4.45
2019-03-04T23:55:28.209Z,4.25
2019-03-04T23:58:03.599Z,4.78
